createdAt,value
2022-11-12T00:02:44.397Z,2.60
2022-11-12T00:05:30.539Z,2.72
2022-11-12T00:08:16.452Z,4.00
2022-11-12T00:11:02.039Z,3.58
2022-11-12T00:13:47.669Z,6.65
2022-11-12T00:16:33.376Z,3.10
2022-11-12T00:19:19.081Z,3.13
2022-11-12T00:22:05.165Z,3.63
2022-11-12T00:24:50.829Z,4.13
2022-11-12T00:27:36.566Z,4.22
2022-11-12T00:30:22.481Z,3.40
2022-11-12T00:33:08.246Z,3.08
2022-11-12T00:35:53.586Z,2.97
2022-11-12T00:38:38.967Z,3.77
2022-11-12T00:41:24.568Z,4.15
2022-11-12T00:44:10.038Z,3.20
2022-11-12T00:46:56.518Z,3.40
2022-11-12T00:49:41.974Z,3.40
2022-11-12T00:52:27.556Z,3.60
2022-11-12T00:55:13.088Z,3.03
2022-11-12T00:57:59.271Z,3.47
2022-11-12T01:00:44.868Z,2.95
2022-11-12T01:03:30.445Z,3.90
2022-11-12T01:06:21.541Z,3.72
2022-11-12T01:09:08.975Z,2.97
2022-11-12T01:11:54.506Z,3.20
2022-11-12T01:14:39.954Z,3.85
2022-11-12T01:17:25.739Z,3.72
2022-11-12T01:20:11.605Z,3.13
2022-11-12T01:22:57.141Z,3.05
2022-11-12T01:25:42.493Z,3.53
2022-11-12T01:28:29.381Z,3.58
2022-11-12T01:31:22.231Z,4.63
2022-11-12T01:34:09.464Z,4.85
2022-11-12T01:37:00.442Z,3.85
2022-11-12T01:39:45.977Z,4.88
2022-11-12T01:42:32.889Z,4.70
2022-11-12T01:45:18.374Z,4.57
2022-11-12T01:48:04.602Z,4.53
2022-11-12T01:50:50.874Z,4.65
2022-11-12T01:56:29.622Z,4.13
2022-11-12T01:59:28.107Z,4.25
2022-11-12T02:02:13.872Z,6.07
2022-11-12T02:05:00.814Z,5.13
2022-11-12T02:07:47.849Z,4.57
2022-11-12T02:10:35.562Z,4.95
2022-11-12T02:13:39.718Z,4.47
2022-11-12T02:16:46.195Z,4.30
2022-11-12T02:19:31.637Z,5.20
2022-11-12T02:22:16.915Z,4.68
2022-11-12T02:25:02.521Z,5.55
2022-11-12T02:27:51.824Z,5.15
2022-11-12T02:30:40.274Z,4.30
2022-11-12T02:33:25.997Z,4.53
2022-11-12T02:36:11.817Z,4.28
2022-11-12T02:38:58.485Z,3.90
2022-11-12T02:41:44.274Z,4.22
2022-11-12T02:44:31.162Z,5.35
2022-11-12T02:47:16.672Z,6.03
2022-11-12T02:50:02.265Z,5.53
2022-11-12T02:52:47.929Z,7.18
2022-11-12T02:55:33.689Z,8.25
2022-11-12T02:58:19.348Z,7.50
2022-11-12T03:01:05.428Z,7.03
2022-11-12T03:03:51.069Z,7.97
2022-11-12T03:06:36.950Z,6.68
2022-11-12T03:09:23.285Z,7.07
2022-11-12T03:12:08.961Z,6.32
2022-11-12T03:14:54.543Z,5.82
2022-11-12T03:17:40.182Z,6.50
2022-11-12T03:20:26.619Z,6.13
2022-11-12T03:23:12.178Z,6.75
2022-11-12T03:25:57.821Z,6.93
2022-11-12T03:28:43.329Z,6.25
2022-11-12T03:31:29.114Z,7.05
2022-11-12T03:34:14.953Z,7.32
2022-11-12T03:37:00.582Z,6.43
2022-11-12T03:39:46.049Z,7.50
2022-11-12T03:42:31.634Z,6.80
2022-11-12T03:45:18.699Z,6.88
2022-11-12T03:48:04.645Z,7.47
2022-11-12T03:50:50.321Z,6.45
2022-11-12T03:53:35.629Z,8.07
2022-11-12T03:56:20.967Z,6.30
2022-11-12T03:59:06.711Z,6.55
2022-11-12T04:01:52.473Z,7.05
2022-11-12T04:04:56.594Z,7.47
2022-11-12T04:08:00.872Z,7.22
2022-11-12T04:10:46.688Z,7.65
2022-11-12T04:13:32.674Z,7.20
2022-11-12T04:16:39.622Z,7.10
2022-11-12T04:19:43.898Z,6.80
2022-11-12T04:22:29.692Z,7.25
2022-11-12T04:25:33.811Z,7.80
2022-11-12T04:28:19.365Z,9.73
2022-11-12T04:31:05.368Z,8.10
2022-11-12T04:33:51.101Z,8.27
2022-11-12T04:36:36.563Z,7.82
2022-11-12T04:39:22.540Z,7.55
2022-11-12T04:42:28.740Z,7.82
2022-11-12T04:45:14.322Z,7.77
2022-11-12T04:47:59.802Z,8.32
2022-11-12T04:50:49.293Z,7.28
2022-11-12T04:53:34.857Z,7.65
2022-11-12T04:56:20.340Z,6.37
2022-11-12T04:59:05.887Z,7.10
2022-11-12T05:01:51.762Z,6.50
2022-11-12T05:04:37.461Z,6.70
2022-11-12T05:07:23.182Z,8.18
2022-11-12T05:10:09.746Z,8.18
2022-11-12T05:12:55.542Z,8.55
2022-11-12T05:15:43.958Z,7.88
2022-11-12T05:18:29.751Z,7.38
2022-11-12T05:21:36.920Z,8.30
2022-11-12T05:24:40.985Z,9.00
2022-11-12T05:27:28.022Z,7.63
2022-11-12T05:32:59.665Z,8.70
2022-11-12T05:35:45.085Z,8.95
2022-11-12T05:38:30.571Z,9.57
2022-11-12T05:41:20.195Z,9.75
2022-11-12T05:44:06.571Z,8.40
2022-11-12T05:46:52.103Z,8.38
2022-11-12T05:49:37.689Z,7.75
2022-11-12T05:52:23.459Z,8.07
2022-11-12T05:55:09.558Z,8.75
2022-11-12T05:57:55.042Z,7.93
2022-11-12T06:00:40.521Z,8.27
2022-11-12T06:03:26.903Z,7.35
2022-11-12T06:08:57.773Z,7.18
2022-11-12T06:11:44.716Z,8.13
2022-11-12T06:14:30.507Z,7.55
2022-11-12T06:17:16.207Z,7.72
2022-11-12T06:20:01.852Z,9.23
2022-11-12T06:22:47.644Z,7.43
2022-11-12T06:25:34.014Z,7.57
2022-11-12T06:31:05.493Z,7.05
2022-11-12T06:33:51.245Z,7.43
2022-11-12T06:36:36.734Z,7.22
2022-11-12T06:39:22.063Z,7.03
2022-11-12T06:42:07.541Z,6.43
2022-11-12T06:44:53.341Z,8.13
2022-11-12T06:47:38.651Z,8.63
2022-11-12T06:50:24.475Z,8.15
2022-11-12T06:53:10.222Z,5.40
2022-11-12T06:56:02.771Z,7.65
2022-11-12T06:58:48.497Z,7.63
2022-11-12T07:01:34.436Z,7.85
2022-11-12T07:04:21.594Z,7.45
2022-11-12T07:07:10.627Z,7.75
2022-11-12T07:09:56.731Z,7.03
2022-11-12T07:12:42.582Z,8.48
2022-11-12T07:15:28.559Z,8.63
2022-11-12T07:18:14.222Z,7.95
2022-11-12T07:21:08.288Z,7.90
2022-11-12T07:23:54.994Z,8.55
2022-11-12T07:26:46.062Z,8.82
2022-11-12T07:29:47.076Z,10.00
2022-11-12T07:32:37.282Z,13.38
2022-11-12T07:35:25.605Z,11.18
2022-11-12T07:38:11.296Z,14.52
2022-11-12T07:41:11.401Z,12.82
2022-11-12T07:43:57.281Z,12.40
2022-11-12T07:46:42.947Z,13.65
2022-11-12T07:49:28.763Z,14.85
2022-11-12T07:52:14.222Z,13.65
2022-11-12T07:55:00.061Z,11.73
2022-11-12T07:57:45.474Z,11.43
2022-11-12T08:00:31.251Z,11.15
2022-11-12T08:03:17.187Z,8.60
2022-11-12T08:06:03.466Z,8.73
2022-11-12T08:08:52.432Z,8.38
2022-11-12T08:11:38.267Z,7.63
2022-11-12T08:14:24.829Z,6.78
2022-11-12T08:19:55.937Z,7.38
2022-11-12T08:22:46.389Z,6.07
2022-11-12T08:25:34.529Z,5.60
2022-11-12T08:28:20.019Z,7.03
2022-11-12T08:31:15.644Z,15.85
2022-11-12T08:34:11.913Z,15.52
2022-11-12T08:36:57.312Z,13.88
2022-11-12T08:39:43.070Z,12.23
2022-11-12T08:42:28.632Z,9.88
2022-11-12T08:45:14.392Z,9.77
2022-11-12T08:48:02.232Z,9.25
2022-11-12T08:50:47.599Z,9.05
2022-11-12T08:53:33.386Z,7.55
2022-11-12T08:56:19.160Z,7.70
2022-11-12T08:59:07.367Z,7.80
2022-11-12T09:01:53.266Z,7.30
2022-11-12T09:04:38.695Z,7.35
2022-11-12T09:10:30.080Z,6.68
2022-11-12T09:13:17.268Z,8.68
2022-11-12T09:16:07.640Z,6.13
2022-11-12T09:18:53.409Z,5.75
2022-11-12T09:21:38.873Z,6.15
2022-11-12T09:24:24.603Z,5.40
2022-11-12T09:27:10.443Z,5.97
2022-11-12T09:29:56.525Z,5.60
2022-11-12T09:32:42.115Z,6.15
2022-11-12T09:38:15.331Z,5.97
2022-11-12T09:41:26.656Z,6.13
2022-11-12T09:44:24.154Z,6.38
2022-11-12T09:47:34.516Z,5.85
2022-11-12T09:50:29.404Z,5.60
2022-11-12T09:53:20.935Z,5.57
2022-11-12T09:56:11.439Z,5.50
2022-11-12T09:58:57.657Z,5.45
2022-11-12T10:02:19.873Z,6.30
2022-11-12T10:05:22.585Z,6.68
2022-11-12T10:08:58.800Z,6.80
2022-11-12T10:12:24.860Z,5.90
2022-11-12T10:16:16.051Z,7.75
2022-11-12T10:19:25.420Z,6.95
2022-11-12T10:22:56.465Z,6.97
2022-11-12T10:25:45.904Z,6.68
2022-11-12T10:28:41.703Z,7.10
2022-11-12T10:31:27.612Z,5.75
2022-11-12T10:34:22.498Z,6.38
2022-11-12T10:37:17.853Z,5.97
2022-11-12T10:40:22.605Z,6.47
2022-11-12T10:43:17.280Z,5.07
2022-11-12T10:46:20.862Z,5.70
2022-11-12T10:49:26.823Z,5.40
2022-11-12T10:52:24.655Z,5.10
2022-11-12T10:55:24.405Z,5.47
2022-11-12T10:58:09.610Z,6.60
2022-11-12T11:01:05.096Z,5.05
2022-11-12T11:03:57.948Z,5.00
2022-11-12T11:06:43.651Z,5.15
2022-11-12T11:09:30.252Z,5.47
2022-11-12T11:12:31.195Z,5.10
2022-11-12T11:15:22.609Z,4.97
2022-11-12T11:18:12.461Z,5.00
2022-11-12T11:21:48.609Z,5.82
2022-11-12T11:24:59.256Z,5.32
2022-11-12T11:28:23.307Z,5.47
2022-11-12T11:31:40.646Z,4.68
2022-11-12T11:34:53.634Z,4.95
2022-11-12T11:38:18.972Z,4.40
2022-11-12T11:41:17.729Z,5.35
2022-11-12T11:44:29.437Z,5.93
2022-11-12T11:47:50.503Z,5.20
2022-11-12T11:50:46.506Z,5.03
2022-11-12T11:53:48.270Z,5.65
2022-11-12T11:56:41.789Z,6.28
2022-11-12T12:00:00.596Z,5.15
2022-11-12T12:02:49.766Z,5.60
2022-11-12T12:06:18.481Z,5.10
2022-11-12T12:09:31.775Z,5.00
2022-11-12T12:12:39.134Z,5.85
2022-11-12T12:16:00.850Z,5.22
2022-11-12T12:19:32.266Z,5.93
2022-11-12T12:22:40.991Z,5.28
2022-11-12T12:25:33.439Z,5.20
2022-11-12T12:28:38.618Z,5.78
2022-11-12T12:31:35.261Z,5.57
2022-11-12T12:37:41.703Z,5.13
2022-11-12T12:40:39.640Z,4.90
2022-11-12T12:43:42.939Z,5.45
2022-11-12T12:46:31.894Z,5.07
2022-11-12T12:49:25.795Z,5.10
2022-11-12T12:52:15.302Z,5.75
2022-11-12T12:55:00.599Z,5.22
2022-11-12T12:57:46.121Z,5.93
2022-11-12T13:00:41.325Z,6.32
2022-11-12T13:03:48.862Z,5.55
2022-11-12T13:06:37.831Z,5.95
2022-11-12T13:09:25.824Z,5.88
2022-11-12T13:12:11.347Z,5.55
2022-11-12T13:15:16.493Z,6.28
2022-11-12T13:18:02.366Z,5.55
2022-11-12T13:21:20.696Z,5.88
2022-11-12T13:24:12.863Z,5.15
2022-11-12T13:27:01.701Z,5.80
2022-11-12T13:29:48.170Z,6.15
2022-11-12T13:32:51.591Z,5.60
2022-11-12T13:35:39.553Z,5.50
2022-11-12T13:38:26.458Z,4.97
2022-11-12T13:41:16.421Z,5.68
2022-11-12T13:44:07.709Z,5.95
2022-11-12T13:46:55.797Z,5.20
2022-11-12T13:49:44.035Z,5.47
2022-11-12T13:52:29.878Z,5.20
2022-11-12T13:55:21.344Z,6.22
2022-11-12T13:58:18.865Z,5.35
2022-11-12T14:01:07.043Z,5.20
2022-11-12T14:03:53.742Z,5.47
2022-11-12T14:06:44.731Z,5.57
2022-11-12T14:10:11.484Z,5.65
2022-11-12T14:13:27.820Z,5.90
2022-11-12T14:16:54.874Z,5.88
2022-11-12T14:20:03.931Z,7.63
2022-11-12T14:22:49.377Z,7.70
2022-11-12T14:25:35.005Z,7.00
2022-11-12T14:28:35.733Z,7.15
2022-11-12T14:31:25.247Z,7.18
2022-11-12T14:34:34.330Z,6.90
2022-11-12T14:37:43.035Z,7.55
2022-11-12T14:40:33.210Z,7.53
2022-11-12T14:43:47.188Z,7.55
2022-11-12T14:46:39.677Z,7.13
2022-11-12T14:49:34.380Z,8.77
2022-11-12T14:52:27.948Z,7.88
2022-11-12T14:55:24.292Z,7.82
2022-11-12T14:58:15.769Z,6.40
2022-11-12T15:02:08.858Z,7.38
2022-11-12T15:04:45.040Z,7.53
2022-11-12T15:07:51.400Z,6.15
2022-11-12T15:10:45.455Z,6.93
2022-11-12T15:13:39.001Z,6.85
2022-11-12T15:16:30.087Z,6.47
2022-11-12T15:19:27.410Z,7.03
2022-11-12T15:22:22.991Z,7.85
2022-11-12T15:25:24.850Z,8.40
2022-11-12T15:28:22.085Z,8.48
2022-11-12T15:31:21.956Z,7.68
2022-11-12T15:34:28.391Z,6.63
2022-11-12T15:37:21.666Z,7.70
2022-11-12T15:40:16.954Z,6.85
2022-11-12T15:43:03.099Z,7.05
2022-11-12T15:45:50.899Z,7.15
2022-11-12T15:48:36.492Z,7.15
2022-11-12T15:51:22.341Z,6.25
2022-11-12T15:54:08.294Z,6.63
2022-11-12T15:56:54.753Z,6.30
2022-11-12T15:59:41.396Z,6.38
2022-11-12T16:02:27.365Z,7.10
2022-11-12T16:05:15.906Z,6.55
2022-11-12T16:08:01.433Z,6.90
2022-11-12T16:10:48.175Z,6.00
2022-11-12T16:13:34.411Z,6.97
2022-11-12T16:16:19.877Z,7.18
2022-11-12T16:19:16.678Z,6.88
2022-11-12T16:22:02.116Z,6.55
2022-11-12T16:24:47.590Z,6.35
2022-11-12T16:27:33.217Z,7.25
2022-11-12T16:30:33.044Z,7.30
2022-11-12T16:33:18.573Z,6.07
2022-11-12T16:36:10.851Z,6.93
2022-11-12T16:38:56.041Z,5.88
2022-11-12T16:41:41.757Z,6.60
2022-11-12T16:44:28.122Z,6.30
2022-11-12T16:47:14.044Z,5.68
2022-11-12T16:49:59.355Z,5.68
2022-11-12T16:52:44.913Z,6.55
2022-11-12T16:55:31.651Z,5.30
2022-11-12T16:58:17.159Z,5.90
2022-11-12T17:01:02.513Z,5.70
2022-11-12T17:03:47.629Z,5.30
2022-11-12T17:06:40.526Z,7.00
2022-11-12T17:09:26.040Z,6.75
2022-11-12T17:12:11.681Z,5.30
2022-11-12T17:14:57.461Z,5.78
2022-11-12T17:17:43.399Z,7.95
2022-11-12T17:20:28.985Z,13.32
2022-11-12T17:23:14.789Z,10.25
2022-11-12T17:26:02.773Z,6.82
2022-11-12T17:28:51.603Z,6.05
2022-11-12T17:31:41.426Z,7.68
2022-11-12T17:34:27.074Z,5.47
2022-11-12T17:37:12.406Z,4.50
2022-11-12T17:39:58.589Z,4.88
2022-11-12T17:42:44.360Z,4.78
2022-11-12T17:45:30.145Z,5.70
2022-11-12T17:48:15.742Z,8.60
2022-11-12T17:51:14.819Z,8.27
2022-11-12T17:54:00.274Z,8.52
2022-11-12T17:56:46.067Z,9.90
2022-11-12T17:59:32.984Z,12.85
2022-11-12T18:02:18.772Z,8.23
2022-11-12T18:05:04.935Z,9.52
2022-11-12T18:07:50.765Z,6.30
2022-11-12T18:10:37.929Z,4.35
2022-11-12T18:13:24.061Z,7.95
2022-11-12T18:16:21.873Z,6.65
2022-11-12T18:19:10.850Z,4.60
2022-11-12T18:21:57.035Z,5.05
2022-11-12T18:24:42.632Z,6.90
2022-11-12T18:27:29.486Z,5.32
2022-11-12T18:30:19.317Z,5.45
2022-11-12T18:33:05.056Z,5.30
2022-11-12T18:36:12.641Z,5.18
2022-11-12T18:38:58.093Z,5.63
2022-11-12T18:41:43.870Z,6.35
2022-11-12T18:44:29.385Z,5.47
2022-11-12T18:47:15.561Z,5.07
2022-11-12T18:50:07.183Z,5.32
2022-11-12T18:52:53.908Z,4.38
2022-11-12T18:55:39.949Z,4.40
2022-11-12T18:58:31.952Z,4.85
2022-11-12T19:01:23.501Z,4.63
2022-11-12T19:04:11.407Z,5.75
2022-11-12T19:06:57.219Z,6.97
2022-11-12T19:09:42.912Z,5.05
2022-11-12T19:12:28.821Z,4.85
2022-11-12T19:15:14.568Z,5.35
2022-11-12T19:18:01.416Z,5.28
2022-11-12T19:20:52.339Z,5.80
2022-11-12T19:23:38.573Z,5.15
2022-11-12T19:26:24.477Z,6.30
2022-11-12T19:29:10.112Z,5.93
2022-11-12T19:31:55.803Z,5.25
2022-11-12T19:34:41.361Z,6.93
2022-11-12T19:37:33.534Z,5.57
2022-11-12T19:40:20.238Z,7.72
2022-11-12T19:43:05.847Z,10.60
2022-11-12T19:45:51.470Z,12.57
2022-11-12T19:48:37.731Z,8.07
2022-11-12T19:51:24.412Z,10.88
2022-11-12T19:54:10.097Z,8.13
2022-11-12T19:56:55.794Z,10.00
2022-11-12T19:59:41.241Z,8.57
2022-11-12T20:02:27.116Z,6.00
2022-11-12T20:05:13.896Z,5.05
2022-11-12T20:07:59.615Z,5.82
2022-11-12T20:10:45.231Z,7.90
2022-11-12T20:13:31.047Z,8.60
2022-11-12T20:16:23.928Z,7.68
2022-11-12T20:19:11.492Z,8.38
2022-11-12T20:21:57.147Z,11.60
2022-11-12T20:24:42.859Z,8.52
2022-11-12T20:30:14.279Z,5.57
2022-11-12T20:32:59.983Z,4.07
2022-11-12T20:35:45.597Z,4.05
2022-11-12T20:38:31.503Z,4.20
2022-11-12T20:41:23.300Z,4.22
2022-11-12T20:44:09.060Z,3.20
2022-11-12T20:46:54.592Z,3.63
2022-11-12T20:49:40.354Z,3.35
2022-11-12T20:52:26.185Z,2.55
2022-11-12T20:55:11.672Z,2.50
2022-11-12T20:57:56.972Z,3.57
2022-11-12T21:00:43.575Z,3.83
2022-11-12T21:03:29.194Z,3.90
2022-11-12T21:06:18.690Z,3.88
2022-11-12T21:09:04.025Z,3.38
2022-11-12T21:11:49.289Z,3.93
2022-11-12T21:14:34.808Z,3.72
2022-11-12T21:17:20.564Z,4.43
2022-11-12T21:22:52.799Z,4.38
2022-11-12T21:25:39.860Z,4.30
2022-11-12T21:28:25.829Z,3.75
2022-11-12T21:34:04.440Z,3.53
2022-11-12T21:36:50.261Z,3.50
2022-11-12T21:39:36.019Z,3.97
2022-11-12T21:42:21.482Z,5.43
2022-11-12T21:45:07.601Z,3.67
2022-11-12T21:50:39.774Z,4.37
2022-11-12T21:53:25.260Z,4.05
2022-11-12T21:56:18.039Z,3.20
2022-11-12T21:59:04.516Z,3.83
2022-11-12T22:04:35.553Z,3.33
2022-11-12T22:07:21.331Z,4.35
2022-11-12T22:10:07.549Z,5.00
2022-11-12T22:15:59.308Z,3.92
2022-11-12T22:18:48.101Z,5.18
2022-11-12T22:21:39.498Z,5.55
2022-11-12T22:24:25.520Z,4.75
2022-11-12T22:27:11.144Z,10.73
2022-11-12T22:29:57.105Z,6.85
2022-11-12T22:32:42.874Z,6.53
2022-11-12T22:35:28.521Z,10.43
2022-11-12T22:38:14.185Z,9.48
2022-11-12T22:41:09.547Z,7.18
2022-11-12T22:44:01.266Z,6.15
2022-11-12T22:46:46.882Z,5.80
2022-11-12T22:49:32.611Z,4.13
2022-11-12T22:52:18.328Z,4.20
2022-11-12T22:55:04.718Z,5.28
2022-11-12T23:00:35.939Z,4.90
2022-11-12T23:03:21.343Z,4.47
2022-11-12T23:06:07.101Z,5.30
2022-11-12T23:08:58.989Z,5.15
2022-11-12T23:11:44.326Z,7.32
2022-11-12T23:14:29.876Z,9.35
2022-11-12T23:17:15.344Z,9.23
2022-11-12T23:20:01.039Z,8.30
2022-11-12T23:22:46.409Z,7.43
2022-11-12T23:25:34.851Z,6.67
2022-11-12T23:28:20.192Z,5.95
2022-11-12T23:31:11.464Z,5.70
2022-11-12T23:34:00.090Z,4.80
2022-11-12T23:36:45.566Z,5.50
2022-11-12T23:39:31.441Z,5.47
2022-11-12T23:42:17.383Z,5.85
2022-11-12T23:45:02.795Z,4.53
2022-11-12T23:47:48.347Z,5.25
2022-11-12T23:50:33.737Z,5.20
2022-11-12T23:53:19.233Z,4.75
2022-11-12T23:56:07.717Z,5.43
2022-11-12T23:58:55.103Z,4.70
